Información del aeropuerto LOWI

Información de pista
Pista 08 Longitud 6562 ft Anchura 148 ft
Elevación 1907 ft Umbral 339 ft Rumbo 81
Pista 26 Longitud 6562 ft Anchura 148 ft
Elevación 1894 ft Umbral ft Rumbo 261
Frecuencias del aeropuerto
Tipo APP Nombre APP Frecuencia 119.275 MHZ
Tipo ATIS Nombre ATIS Frecuencia 126.025 MHZ
Tipo GND Crew Nombre Frecuencia 121.8 MHZ
Tipo GND Crew Nombre Frecuencia 121.9 MHZ
Tipo TWR Nombre TWR Frecuencia 120.1 MHZ
Radioayudas del aeropuerto
Tipo NDB Nombre Innsbruck Frecuencia 420 KHZ
Tipo NDB Nombre Kuhtai Frecuencia 413 KHZ
Información meteorológica del aeropuerto y NOTAM
ADDS - METARS form results

(2225 UTC 08 August 2022)
Data provider http://aviationweather.gov/metar/data/
 
METAR text: LOWI 082220Z AUTO VRB01KT 9999 NCD 17/13 Q1024
Conditions at: LOWI (INNSBRUCK AIRPOR, AT) observed 2220 UTC 08 August 2022
Temperature: 17.0°C (63°F)
Dewpoint: 13.0°C (55°F) [RH = 77%]
Pressure (altimeter): 30.24 inches Hg (1024.0 mb)
Winds: variable direction winds at 1 MPH (1 knots; 0.5 m/s)
Visibility: 6 or more miles (10+ km)
Ceiling: at least 12,000 feet AGL
Clouds: sky clear below 12,000 feet AGL
Weather: no significant weather observed at this time

METAR text: LOWI 082150Z AUTO VRB02KT 9999 FEW050 17/13 Q1024
Conditions at: LOWI (INNSBRUCK AIRPOR, AT) observed 2150 UTC 08 August 2022
Temperature: 17.0°C (63°F)
Dewpoint: 13.0°C (55°F) [RH = 77%]
Pressure (altimeter): 30.24 inches Hg (1024.0 mb)
Winds: variable direction winds at 2 MPH (2 knots; 1.0 m/s)
Visibility: 6 or more miles (10+ km)
Ceiling: at least 12,000 feet AGL
Clouds: few clouds at 5000 feet AGL
Weather: no significant weather observed at this time

Forecast for: LOWI (INNSBRUCK AIRPOR, AT)
Text: TAF LOWI 081715Z 0818/0918 09010KT 9999 FEW060 TX28/0915Z TN13/0904Z
Forecast period: 1800 to 1900 UTC 08 August 2022
Forecast type: FROM: standard forecast or significant change
Winds: from the E (90 degrees) at 12 MPH (10 knots; 5.1 m/s)
Visibility: 6 or more miles (10+ km)
Ceiling: at least 12,000 feet AGL
Clouds: few clouds at 6000 feet AGL
Weather: no significant weather forecast for this period
Text: BECMG 0819/0821 VRB02KT
Forecast period: 1900 UTC 08 August 2022 to 0800 UTC 09 August 2022
Forecast type: BECOMING: Conditions expected to become as follows by 2100 UTC 08 August 2022
Winds: variable direction winds at 2 MPH (2 knots; 1.0 m/s)
Visibility: 6 or more miles (10+ km)
Ceiling: at least 12,000 feet AGL
Clouds: few clouds at 6000 feet AGL
Weather: no significant weather forecast for this period
Text: BECMG 0908/0910 09010KT
Forecast period: 0800 to 1800 UTC 09 August 2022
Forecast type: BECOMING: Conditions expected to become as follows by 1000 UTC 09 August 2022
Winds: from the E (90 degrees) at 12 MPH (10 knots; 5.1 m/s)
Visibility: 6 or more miles (10+ km)
Ceiling: at least 12,000 feet AGL
Clouds: few clouds at 6000 feet AGL
Weather: no significant weather forecast for this period